Time;durP1;ratioP1;P1;durP2;ratioP2;P2;SDS_P1;SDS_P2;PMS_P1;PMS_P2;Temp;Humidity;BMP_temperature;BMP_pressure;BME280_temperature;BME280_humidity;BME280_pressure;Samples;Min_cycle;Max_cycle;Signal;HPM_P1;HPM_P2
2023/03/15 00:00:53;;;;;;;11.00;3.50;;;5.50;99.90;;;;;;5050638;28;20264;-85
2023/03/15 00:03:19;;;;;;;6.73;3.10;;;5.40;99.90;;;;;;5050850;28;20178;-84
2023/03/15 00:05:47;;;;;;;9.03;4.80;;;5.50;99.90;;;;;;5049397;28;20188;-84
2023/03/15 00:08:14;;;;;;;10.90;4.80;;;5.40;99.90;;;;;;5050837;28;20180;-84
2023/03/15 00:10:44;;;;;;;10.97;4.70;;;5.30;99.90;;;;;;5050815;28;20174;-85
2023/03/15 00:13:10;;;;;;;10.03;4.57;;;5.30;99.90;;;;;;5050823;28;20706;-84
2023/03/15 00:15:36;;;;;;;11.60;4.30;;;5.60;99.90;;;;;;5050632;28;20174;-85
2023/03/15 00:18:02;;;;;;;10.03;3.90;;;5.60;99.90;;;;;;5049869;28;20547;-84
2023/03/15 00:20:28;;;;;;;8.97;3.33;;;5.70;99.90;;;;;;5034740;28;20621;-82
2023/03/15 00:22:54;;;;;;;8.40;3.20;;;5.80;99.90;;;;;;5050934;28;20219;-83
2023/03/15 00:25:20;;;;;;;7.47;3.60;;;5.70;99.90;;;;;;5050151;28;20276;-85
2023/03/15 00:27:45;;;;;;;8.27;3.60;;;5.60;99.90;;;;;;5062959;28;20177;-83
2023/03/15 00:30:11;;;;;;;9.37;3.90;;;5.60;99.90;;;;;;5049763;28;20177;-83
2023/03/15 00:32:37;;;;;;;8.00;3.63;;;5.60;99.90;;;;;;5050894;28;20284;-83
2023/03/15 00:35:03;;;;;;;8.50;3.30;;;5.60;99.90;;;;;;5050409;28;20621;-84
2023/03/15 00:37:30;;;;;;;8.17;3.60;;;5.70;99.90;;;;;;5050785;28;20272;-83
2023/03/15 00:39:55;;;;;;;8.57;3.40;;;5.70;99.90;;;;;;5049715;28;20228;-83
2023/03/15 00:42:26;;;;;;;7.70;2.93;;;5.70;99.90;;;;;;5049842;28;20622;-84
2023/03/15 00:44:54;;;;;;;9.33;3.50;;;5.70;99.90;;;;;;5050695;28;20185;-84
2023/03/15 00:47:20;;;;;;;10.03;3.23;;;5.60;99.90;;;;;;5054136;28;20250;-83
2023/03/15 00:49:45;;;;;;;11.73;2.97;;;5.60;99.90;;;;;;5052608;28;20242;-84
2023/03/15 00:52:11;;;;;;;7.50;2.80;;;5.70;99.90;;;;;;5050543;28;20174;-84
2023/03/15 00:54:37;;;;;;;5.80;2.87;;;5.70;99.90;;;;;;5050494;28;20630;-84
2023/03/15 00:57:03;;;;;;;6.20;2.50;;;5.60;99.90;;;;;;5050090;28;20169;-84
2023/03/15 00:59:33;;;;;;;3.87;1.80;;;5.60;99.90;;;;;;5049362;28;20205;-84
2023/03/15 01:02:01;;;;;;;8.67;2.40;;;5.70;99.90;;;;;;5050289;28;20177;-84
2023/03/15 01:04:26;;;;;;;4.80;1.50;;;5.30;99.90;;;;;;5049772;28;20180;-85
2023/03/15 01:06:52;;;;;;;5.03;1.27;;;5.10;99.90;;;;;;5049034;28;20170;-86
2023/03/15 01:09:17;;;;;;;2.67;1.40;;;5.00;99.90;;;;;;5064959;28;20626;-85
2023/03/15 01:11:43;;;;;;;2.83;1.10;;;5.20;99.90;;;;;;5050075;28;20178;-83
2023/03/15 01:14:09;;;;;;;3.53;1.37;;;4.90;99.90;;;;;;5062509;28;20529;-84
2023/03/15 01:16:35;;;;;;;2.73;1.20;;;4.90;99.90;;;;;;5050170;28;20343;-84
2023/03/15 01:19:02;;;;;;;2.53;1.50;;;4.80;99.90;;;;;;5050349;28;20224;-85
2023/03/15 01:21:28;;;;;;;2.87;1.20;;;4.60;99.90;;;;;;5050506;28;20201;-84
2023/03/15 01:23:55;;;;;;;3.10;1.40;;;4.60;99.90;;;;;;5050040;28;20275;-84
2023/03/15 01:26:21;;;;;;;5.20;1.90;;;4.70;99.90;;;;;;5047223;28;20212;-86
2023/03/15 01:28:47;;;;;;;3.77;1.73;;;4.50;99.90;;;;;;5049928;28;20188;-86
2023/03/15 01:31:25;;;;;;;4.30;1.70;;;4.80;99.90;;;;;;5049951;28;20545;-85
2023/03/15 01:33:52;;;;;;;4.23;1.87;;;4.50;99.90;;;;;;5050228;28;20185;-86
2023/03/15 01:36:18;;;;;;;2.67;1.60;;;4.70;99.90;;;;;;5034104;28;20193;-85
2023/03/15 01:38:44;;;;;;;5.90;2.07;;;4.60;99.90;;;;;;5049574;28;20241;-85
2023/03/15 01:41:13;;;;;;;2.90;1.63;;;4.70;99.90;;;;;;5049641;28;20197;-86
2023/03/15 01:43:45;;;;;;;5.67;1.83;;;4.70;99.90;;;;;;5060685;28;20166;-85
2023/03/15 01:46:18;;;;;;;5.83;1.70;;;4.80;99.90;;;;;;5037664;28;20272;-85
2023/03/15 01:49:25;;;;;;;4.07;1.80;;;5.00;99.90;;;;;;5049541;28;20213;-86
2023/03/15 01:52:02;;;;;;;5.53;2.00;;;4.90;99.90;;;;;;5049572;28;20173;-85
2023/03/15 01:54:35;;;;;;;3.03;1.80;;;5.00;99.90;;;;;;5049405;28;20545;-85
2023/03/15 01:57:07;;;;;;;5.30;1.60;;;5.00;99.90;;;;;;5049470;28;20173;-85
2023/03/15 01:59:37;;;;;;;4.87;2.07;;;5.30;99.90;;;;;;5050093;28;20206;-85
2023/03/15 02:02:04;;;;;;;5.90;1.83;;;5.10;99.90;;;;;;5054360;28;20195;-84
2023/03/15 02:04:45;;;;;;;4.50;2.00;;;5.10;99.90;;;;;;5060671;28;20560;-84
2023/03/15 02:07:13;;;;;;;3.60;1.93;;;5.10;99.90;;;;;;5049806;28;20178;-85
2023/03/15 02:10:03;;;;;;;5.07;2.10;;;5.00;99.90;;;;;;5048870;28;20170;-85
2023/03/15 02:12:33;;;;;;;3.90;2.00;;;5.20;99.90;;;;;;5048796;28;20644;-84
2023/03/15 02:15:03;;;;;;;6.87;2.60;;;5.30;99.90;;;;;;5050323;28;20192;-84
2023/03/15 02:17:38;;;;;;;7.43;2.40;;;5.20;99.90;;;;;;5048947;28;20170;-84
2023/03/15 02:20:46;;;;;;;4.83;2.30;;;5.30;99.90;;;;;;5048335;28;20216;-84
2023/03/15 02:23:15;;;;;;;4.93;2.37;;;5.60;99.90;;;;;;4991957;28;20178;-84
2023/03/15 02:25:49;;;;;;;6.73;3.33;;;5.50;99.90;;;;;;5024089;28;20189;-84
2023/03/15 02:28:17;;;;;;;6.73;2.20;;;5.40;99.90;;;;;;5048813;28;20531;-84
2023/03/15 02:30:44;;;;;;;5.03;3.23;;;5.60;99.90;;;;;;5049088;28;20200;-84
2023/03/15 02:33:24;;;;;;;6.07;2.93;;;5.50;99.90;;;;;;5048829;28;20181;-84
2023/03/15 02:35:50;;;;;;;7.10;3.70;;;5.50;99.90;;;;;;5048450;28;20686;-83
2023/03/15 02:38:16;;;;;;;8.53;3.53;;;5.50;99.90;;;;;;5033355;28;20181;-84
2023/03/15 02:40:53;;;;;;;6.43;3.77;;;5.50;99.90;;;;;;5048388;28;20200;-83
2023/03/15 02:43:23;;;;;;;7.93;3.77;;;5.50;99.90;;;;;;5056221;28;20174;-84
2023/03/15 02:45:50;;;;;;;7.87;3.87;;;5.50;99.90;;;;;;5049652;28;20235;-84
2023/03/15 02:48:16;;;;;;;10.47;3.90;;;5.50;99.90;;;;;;5048422;28;20250;-85
2023/03/15 02:50:42;;;;;;;6.17;3.73;;;5.40;99.90;;;;;;5063014;28;20165;-84
2023/03/15 02:53:08;;;;;;;8.33;3.63;;;5.30;99.90;;;;;;5071178;28;20166;-84
2023/03/15 02:55:35;;;;;;;6.23;3.77;;;5.40;99.90;;;;;;5052728;28;20185;-84
2023/03/15 02:58:04;;;;;;;6.73;3.90;;;5.50;99.90;;;;;;5050660;28;20181;-83
2023/03/15 03:00:29;;;;;;;8.23;3.77;;;5.60;99.90;;;;;;5051267;28;20672;-83
2023/03/15 03:02:55;;;;;;;9.30;4.27;;;5.60;99.90;;;;;;5048696;28;20181;-84
2023/03/15 03:05:22;;;;;;;6.13;4.43;;;5.60;99.90;;;;;;5047977;28;20234;-85
2023/03/15 03:07:49;;;;;;;7.47;4.03;;;5.50;99.90;;;;;;5048567;28;20172;-84
2023/03/15 03:10:16;;;;;;;6.63;4.10;;;5.60;99.90;;;;;;5048611;28;20173;-85
2023/03/15 03:12:42;;;;;;;9.23;4.43;;;5.50;99.90;;;;;;5032299;28;20178;-85
2023/03/15 03:15:09;;;;;;;6.00;3.77;;;5.50;99.90;;;;;;5048759;28;20668;-85
2023/03/15 03:17:36;;;;;;;8.23;3.90;;;5.40;99.90;;;;;;5048352;28;20265;-84
2023/03/15 03:20:10;;;;;;;7.97;4.10;;;5.40;99.90;;;;;;5048747;28;20206;-85
2023/03/15 03:22:37;;;;;;;5.10;4.40;;;5.40;99.90;;;;;;5033256;28;20169;-85
2023/03/15 03:25:05;;;;;;;8.07;4.10;;;5.40;99.90;;;;;;5048972;28;20268;-84
2023/03/15 03:27:30;;;;;;;6.27;3.73;;;5.40;99.90;;;;;;5051630;28;20169;-85
2023/03/15 03:29:57;;;;;;;6.67;3.60;;;5.40;99.90;;;;;;5054075;28;20174;-83
2023/03/15 03:32:23;;;;;;;9.70;4.07;;;5.40;99.90;;;;;;5063606;28;20189;-85
2023/03/15 03:34:49;;;;;;;5.93;3.57;;;5.40;99.90;;;;;;5071793;28;20204;-84
2023/03/15 03:37:21;;;;;;;6.57;3.60;;;5.50;99.90;;;;;;5054198;28;20177;-84
2023/03/15 03:39:46;;;;;;;6.60;3.83;;;5.50;99.90;;;;;;5048398;28;20300;-84
2023/03/15 03:42:13;;;;;;;6.67;3.90;;;5.50;99.90;;;;;;5047492;28;20209;-84
2023/03/15 03:44:39;;;;;;;4.83;3.33;;;5.40;99.90;;;;;;5048439;28;20174;-84
2023/03/15 03:47:05;;;;;;;6.50;4.03;;;5.30;99.90;;;;;;5048767;28;20613;-84
2023/03/15 03:49:31;;;;;;;6.40;3.70;;;5.30;99.90;;;;;;5049350;28;20180;-84
2023/03/15 03:51:59;;;;;;;7.77;3.37;;;5.20;99.90;;;;;;5050925;28;20177;-84
2023/03/15 03:54:24;;;;;;;6.07;3.50;;;5.50;99.90;;;;;;5051040;28;20177;-84
2023/03/15 03:56:50;;;;;;;6.57;3.10;;;5.60;99.90;;;;;;5051466;28;20582;-84
2023/03/15 03:59:16;;;;;;;5.23;3.70;;;5.50;99.90;;;;;;5050304;28;20216;-84
2023/03/15 04:01:42;;;;;;;5.30;3.80;;;5.50;99.90;;;;;;5057414;28;20174;-83
2023/03/15 04:04:08;;;;;;;6.70;3.70;;;5.60;99.90;;;;;;5060023;28;20180;-85
2023/03/15 04:06:36;;;;;;;5.77;3.50;;;5.50;99.90;;;;;;5057199;28;20633;-84
2023/03/15 04:09:03;;;;;;;7.47;3.87;;;5.40;99.90;;;;;;5051260;28;20268;-84
2023/03/15 04:11:28;;;;;;;7.13;4.00;;;5.50;99.90;;;;;;5059437;28;20170;-84
2023/03/15 04:13:54;;;;;;;5.57;4.13;;;5.50;99.90;;;;;;5064920;28;20186;-84
2023/03/15 04:16:23;;;;;;;9.80;4.40;;;5.70;99.90;;;;;;5062144;28;20184;-84
2023/03/15 04:18:55;;;;;;;7.53;4.43;;;5.60;99.90;;;;;;5062022;28;20213;-84
2023/03/15 04:21:22;;;;;;;7.67;4.77;;;5.50;99.90;;;;;;5038930;28;20189;-85
2023/03/15 04:23:48;;;;;;;8.77;4.50;;;5.60;99.90;;;;;;5059433;28;20174;-83
2023/03/15 04:26:14;;;;;;;6.73;4.93;;;5.60;99.90;;;;;;5043969;28;20205;-85
2023/03/15 04:28:41;;;;;;;9.13;4.80;;;5.50;99.90;;;;;;5055976;28;20177;-83
2023/03/15 04:31:13;;;;;;;8.27;5.10;;;5.60;99.90;;;;;;5059030;28;20285;-84
2023/03/15 04:33:39;;;;;;;7.87;4.77;;;5.60;99.90;;;;;;5059024;28;20700;-83
2023/03/15 04:36:05;;;;;;;7.27;5.13;;;5.60;99.90;;;;;;5054649;28;20225;-84
2023/03/15 04:38:31;;;;;;;10.07;5.13;;;5.70;99.90;;;;;;5053150;28;20220;-84
2023/03/15 04:40:56;;;;;;;11.13;6.17;;;5.80;99.90;;;;;;5050359;28;20178;-85
2023/03/15 04:43:25;;;;;;;9.03;5.60;;;5.90;99.90;;;;;;5050855;28;20181;-84
2023/03/15 04:45:51;;;;;;;10.93;5.53;;;5.80;99.90;;;;;;5050848;28;20177;-85
2023/03/15 04:48:16;;;;;;;8.93;5.50;;;5.80;99.90;;;;;;5034790;28;20173;-85
2023/03/15 04:50:42;;;;;;;7.33;5.90;;;5.90;99.90;;;;;;5034101;28;20633;-86
2023/03/15 04:53:08;;;;;;;7.00;5.60;;;6.00;99.90;;;;;;5034426;28;20630;-86
2023/03/15 04:55:33;;;;;;;10.80;6.10;;;5.90;99.90;;;;;;5050104;28;20185;-83
2023/03/15 04:57:59;;;;;;;10.73;5.67;;;5.70;99.90;;;;;;5050530;28;20177;-85
2023/03/15 05:00:25;;;;;;;6.13;4.60;;;5.40;99.90;;;;;;5050004;28;20347;-85
2023/03/15 05:02:56;;;;;;;8.97;5.40;;;5.40;99.90;;;;;;5050322;28;20170;-84
2023/03/15 05:05:22;;;;;;;12.23;6.17;;;5.50;99.90;;;;;;5048980;28;20185;-85
2023/03/15 05:07:48;;;;;;;8.23;5.37;;;5.40;99.90;;;;;;5049811;28;20224;-85
2023/03/15 05:10:14;;;;;;;9.03;6.10;;;5.50;99.90;;;;;;5049761;28;20181;-84
2023/03/15 05:12:40;;;;;;;8.73;5.57;;;5.40;99.90;;;;;;5049576;28;20173;-85
2023/03/15 05:15:06;;;;;;;12.83;6.00;;;5.30;99.90;;;;;;5050151;28;20185;-85
2023/03/15 05:17:32;;;;;;;9.07;5.77;;;5.30;99.90;;;;;;5049491;28;20174;-86
2023/03/15 05:20:00;;;;;;;12.33;6.17;;;5.20;99.90;;;;;;5049811;28;20267;-86
2023/03/15 05:22:26;;;;;;;12.00;6.33;;;5.30;99.90;;;;;;5050338;28;20176;-86
2023/03/15 05:24:52;;;;;;;11.20;5.93;;;5.20;99.90;;;;;;5050435;28;20296;-84
2023/03/15 05:27:18;;;;;;;7.70;5.60;;;5.30;99.90;;;;;;5063394;28;20178;-85
2023/03/15 05:29:47;;;;;;;7.63;5.30;;;5.40;99.90;;;;;;5049644;28;20297;-85
2023/03/15 05:32:13;;;;;;;6.97;5.50;;;5.30;99.90;;;;;;5050793;28;20289;-86
2023/03/15 05:34:38;;;;;;;7.67;5.57;;;5.30;99.90;;;;;;5053786;28;20208;-85
2023/03/15 05:37:04;;;;;;;8.87;6.00;;;5.20;99.90;;;;;;5058910;28;20186;-84
2023/03/15 05:39:33;;;;;;;6.87;5.37;;;5.20;99.90;;;;;;5049522;28;20642;-85
2023/03/15 05:42:00;;;;;;;11.00;5.80;;;5.10;99.90;;;;;;5049755;28;20613;-85
2023/03/15 05:44:27;;;;;;;10.03;5.70;;;5.10;99.90;;;;;;5034752;28;20201;-85
2023/03/15 05:46:52;;;;;;;7.53;5.43;;;5.10;99.90;;;;;;5050042;28;20208;-85
2023/03/15 05:49:18;;;;;;;9.87;5.63;;;5.20;99.90;;;;;;5064193;28;20177;-85
2023/03/15 05:51:44;;;;;;;10.67;5.83;;;5.20;99.90;;;;;;5069905;28;20168;-84
2023/03/15 05:54:09;;;;;;;7.90;6.00;;;5.40;99.90;;;;;;5064955;28;20547;-84
2023/03/15 05:56:35;;;;;;;9.03;6.00;;;5.40;99.90;;;;;;5051369;28;20209;-85
2023/03/15 05:59:06;;;;;;;11.03;5.67;;;5.60;99.90;;;;;;5034653;28;20255;-84
2023/03/15 06:01:32;;;;;;;8.90;6.13;;;5.20;99.90;;;;;;5049780;28;20180;-85
2023/03/15 06:03:58;;;;;;;7.70;6.17;;;5.10;99.90;;;;;;5034182;28;20204;-85
2023/03/15 06:06:23;;;;;;;9.70;5.90;;;5.50;99.90;;;;;;5033132;28;20665;-84
2023/03/15 06:08:49;;;;;;;12.07;5.90;;;5.50;99.90;;;;;;5032527;28;20176;-87
2023/03/15 06:11:14;;;;;;;10.67;6.50;;;5.50;99.90;;;;;;5032238;28;20583;-84
2023/03/15 06:13:40;;;;;;;10.30;6.43;;;5.40;99.90;;;;;;5030969;28;20174;-86
2023/03/15 06:16:06;;;;;;;9.90;6.27;;;5.40;99.90;;;;;;5032104;28;20181;-85
2023/03/15 06:18:32;;;;;;;11.37;6.10;;;5.40;99.90;;;;;;5032023;28;20189;-86
2023/03/15 06:20:57;;;;;;;10.13;6.00;;;5.40;99.90;;;;;;5032264;28;20185;-87
2023/03/15 06:23:23;;;;;;;9.63;6.43;;;5.40;99.90;;;;;;5033663;28;20849;-86
2023/03/15 06:25:49;;;;;;;10.90;6.67;;;5.40;99.90;;;;;;5032586;28;20629;-85
2023/03/15 06:28:15;;;;;;;11.13;6.00;;;5.40;99.90;;;;;;5035042;28;20197;-85
2023/03/15 06:30:40;;;;;;;8.00;5.80;;;5.30;99.90;;;;;;5037547;28;20191;-85
2023/03/15 06:33:06;;;;;;;10.93;6.27;;;5.20;99.90;;;;;;5033802;28;20633;-85
2023/03/15 06:35:32;;;;;;;8.90;6.17;;;5.30;99.90;;;;;;5033777;28;20571;-86
2023/03/15 06:38:00;;;;;;;10.10;6.83;;;5.40;99.90;;;;;;5037830;28;20241;-87
2023/03/15 06:40:25;;;;;;;12.30;6.87;;;5.40;99.90;;;;;;5043309;28;20205;-86
2023/03/15 06:42:53;;;;;;;8.57;6.37;;;5.60;99.90;;;;;;5033757;28;20657;-85
2023/03/15 06:45:19;;;;;;;10.67;7.10;;;5.70;99.90;;;;;;5031946;28;20227;-86
2023/03/15 06:47:45;;;;;;;12.20;7.33;;;5.60;99.90;;;;;;5033471;28;20174;-86
2023/03/15 06:50:11;;;;;;;10.47;6.67;;;5.60;99.90;;;;;;5042744;28;20177;-85
2023/03/15 06:52:37;;;;;;;9.80;6.20;;;5.70;99.90;;;;;;5044921;28;20201;-84
2023/03/15 06:55:04;;;;;;;9.37;6.93;;;5.70;99.90;;;;;;5028222;28;20181;-85
2023/03/15 06:57:29;;;;;;;8.70;6.43;;;5.60;99.90;;;;;;5035061;28;20170;-88
2023/03/15 06:59:55;;;;;;;9.63;6.80;;;5.70;99.90;;;;;;5033648;28;20209;-86
2023/03/15 07:02:21;;;;;;;10.73;6.40;;;5.70;99.90;;;;;;5037554;28;20268;-87
2023/03/15 07:04:48;;;;;;;8.00;6.50;;;5.80;99.90;;;;;;5032340;28;20638;-88
2023/03/15 07:07:14;;;;;;;8.47;6.73;;;5.70;99.90;;;;;;5033744;28;20169;-87
2023/03/15 07:09:40;;;;;;;10.00;6.93;;;5.80;99.90;;;;;;5034624;28;20180;-88
2023/03/15 07:12:08;;;;;;;11.43;6.87;;;5.90;99.90;;;;;;5031639;28;20182;-86
2023/03/15 07:14:34;;;;;;;12.40;7.10;;;5.90;99.90;;;;;;5031567;28;20188;-88
2023/03/15 07:17:03;;;;;;;10.70;7.07;;;5.90;99.90;;;;;;5031406;28;20264;-89
2023/03/15 07:19:29;;;;;;;11.13;7.23;;;5.90;99.90;;;;;;5032518;28;20209;-89
2023/03/15 07:21:54;;;;;;;11.57;6.87;;;5.90;99.90;;;;;;5032446;28;20220;-88
2023/03/15 07:24:20;;;;;;;8.70;6.67;;;6.00;99.90;;;;;;5038286;28;20272;-90
2023/03/15 07:26:46;;;;;;;8.83;6.40;;;5.90;99.90;;;;;;5039914;28;20229;-90
2023/03/15 07:29:11;;;;;;;9.97;7.43;;;5.90;99.90;;;;;;5044977;28;20252;-88
2023/03/15 07:31:37;;;;;;;10.73;7.03;;;6.00;99.90;;;;;;5045522;28;20211;-87
2023/03/15 07:34:03;;;;;;;9.30;6.87;;;6.00;99.90;;;;;;5051563;28;20181;-85
2023/03/15 07:36:31;;;;;;;9.93;6.77;;;6.00;99.90;;;;;;5047975;28;20248;-88
2023/03/15 07:38:56;;;;;;;10.77;6.90;;;6.20;99.90;;;;;;5043001;28;20212;-87
2023/03/15 07:41:22;;;;;;;11.53;6.17;;;6.10;99.90;;;;;;5058465;28;20189;-87
2023/03/15 07:43:48;;;;;;;9.20;5.87;;;6.00;99.90;;;;;;5039977;28;20185;-86
2023/03/15 07:46:14;;;;;;;7.53;6.23;;;6.10;99.90;;;;;;5038189;28;20178;-85
2023/03/15 07:48:40;;;;;;;9.43;6.17;;;6.10;99.90;;;;;;5059009;28;20177;-87
2023/03/15 07:51:05;;;;;;;11.00;6.03;;;6.20;99.90;;;;;;5062437;28;20173;-86
2023/03/15 07:53:31;;;;;;;9.03;5.93;;;6.60;99.90;;;;;;5061387;28;20645;-85
2023/03/15 07:55:58;;;;;;;11.03;6.97;;;6.60;99.90;;;;;;5058113;28;20528;-87
2023/03/15 07:58:24;;;;;;;11.03;6.77;;;6.70;99.90;;;;;;5053637;28;20177;-84
2023/03/15 08:00:49;;;;;;;8.27;5.87;;;6.80;99.90;;;;;;5050988;28;20204;-84
2023/03/15 08:03:25;;;;;;;;;;;;;;;;;;;;;
2023/03/15 08:05:51;;;;;;;8.33;5.47;;;6.70;99.90;;;;;;5036368;28;20189;-85
2023/03/15 08:08:17;;;;;;;6.77;5.83;;;6.90;99.90;;;;;;5043397;28;20182;-87
2023/03/15 08:10:44;;;;;;;7.37;5.13;;;7.10;99.90;;;;;;5033638;28;20240;-85
2023/03/15 08:13:11;;;;;;;8.37;5.20;;;7.10;99.90;;;;;;5035552;28;20641;-85
2023/03/15 08:15:38;;;;;;;8.10;4.90;;;7.10;99.90;;;;;;5037625;28;20269;-87
2023/03/15 08:18:05;;;;;;;9.03;5.40;;;7.20;99.90;;;;;;5038179;28;20240;-87
2023/03/15 08:20:32;;;;;;;20.27;13.97;;;7.30;99.90;;;;;;5048228;28;20274;-88
2023/03/15 08:23:00;;;;;;;6.53;4.23;;;7.70;99.90;;;;;;5070201;28;20261;-85
2023/03/15 08:25:26;;;;;;;7.50;4.67;;;7.60;99.90;;;;;;5067601;28;20176;-88
2023/03/15 08:27:52;;;;;;;8.07;5.10;;;7.60;99.90;;;;;;5068708;28;20161;-85
2023/03/15 08:30:20;;;;;;;7.90;4.67;;;7.60;99.90;;;;;;5056216;28;20278;-84
2023/03/15 08:32:51;;;;;;;6.63;4.17;;;7.70;99.90;;;;;;5037687;28;20178;-86
2023/03/15 08:35:18;;;;;;;8.40;4.00;;;7.70;99.90;;;;;;5046261;28;20201;-86
2023/03/15 08:37:47;;;;;;;6.13;4.50;;;7.70;99.90;;;;;;5047900;28;20178;-87
2023/03/15 08:40:24;;;;;;;11.13;5.30;;;7.90;99.90;;;;;;5034023;28;20221;-86
2023/03/15 08:42:52;;;;;;;6.47;4.00;;;7.70;99.90;;;;;;5046946;28;20185;-86
2023/03/15 08:45:18;;;;;;;12.00;4.83;;;7.60;99.90;;;;;;5058343;28;20219;-85
2023/03/15 08:47:45;;;;;;;9.30;4.47;;;7.60;99.90;;;;;;5050178;28;20228;-89
2023/03/15 08:50:12;;;;;;;9.07;4.57;;;7.30;99.90;;;;;;5048800;28;20182;-88
2023/03/15 08:52:41;;;;;;;18.97;9.37;;;7.30;99.90;;;;;;5050016;28;20188;-90
2023/03/15 08:55:13;;;;;;;9.90;5.73;;;7.40;99.90;;;;;;5057160;28;20174;-90
2023/03/15 08:57:39;;;;;;;12.23;5.50;;;7.30;99.90;;;;;;5053455;28;20186;-93
2023/03/15 09:00:07;;;;;;;10.30;5.93;;;7.20;99.90;;;;;;5035600;28;20217;-92
2023/03/15 09:02:33;;;;;;;11.93;5.77;;;7.30;99.90;;;;;;5036586;28;20276;-85
2023/03/15 09:04:59;;;;;;;10.80;5.30;;;7.60;99.90;;;;;;5048991;28;20189;-84
2023/03/15 09:07:24;;;;;;;10.40;6.20;;;7.60;99.90;;;;;;5048415;28;20192;-81
2023/03/15 09:09:53;;;;;;;10.80;5.67;;;7.90;99.90;;;;;;5052677;28;20181;-84
2023/03/15 09:12:20;;;;;;;9.63;4.70;;;8.30;99.90;;;;;;5049749;28;20185;-81
2023/03/15 09:14:48;;;;;;;9.30;4.70;;;8.60;99.90;;;;;;5027248;28;20190;-85
2023/03/15 09:17:13;;;;;;;16.17;10.87;;;8.90;99.90;;;;;;5015273;28;20205;-85
2023/03/15 09:19:40;;;;;;;12.80;5.83;;;9.00;99.90;;;;;;5043187;28;20213;-87
2023/03/15 09:22:06;;;;;;;6.53;3.10;;;9.10;99.90;;;;;;5037563;28;20166;-87
2023/03/15 09:24:35;;;;;;;7.60;4.27;;;8.70;99.90;;;;;;5044404;28;20174;-82
2023/03/15 09:27:01;;;;;;;9.67;3.40;;;8.80;99.90;;;;;;5047799;28;20633;-90
2023/03/15 09:29:31;;;;;;;7.13;3.80;;;8.90;99.90;;;;;;5057480;28;20195;-83
2023/03/15 09:32:01;;;;;;;8.40;5.70;;;9.00;99.90;;;;;;5070336;28;20190;-83
2023/03/15 09:34:27;;;;;;;6.00;3.73;;;8.90;99.90;;;;;;5050936;28;20170;-87
2023/03/15 09:36:53;;;;;;;7.27;3.37;;;8.80;99.90;;;;;;5026954;28;20218;-85
2023/03/15 09:39:20;;;;;;;6.87;4.47;;;8.90;99.90;;;;;;5021046;28;20227;-85
2023/03/15 09:42:15;;;;;;;3.80;2.47;;;8.90;99.90;;;;;;5036021;28;20182;-86
2023/03/15 09:44:55;;;;;;;5.13;3.33;;;9.00;99.90;;;;;;5046870;28;20645;-92
2023/03/15 09:47:51;;;;;;;5.63;3.67;;;9.00;99.90;;;;;;5028234;28;20205;-89
2023/03/15 09:50:30;;;;;;;5.37;3.17;;;9.40;99.90;;;;;;5059569;28;20184;-83
2023/03/15 09:53:16;;;;;;;4.93;3.20;;;9.00;99.90;;;;;;5034745;28;20253;-80
2023/03/15 09:55:45;;;;;;;7.13;3.63;;;8.80;99.90;;;;;;5021611;28;20185;-82
2023/03/15 09:58:22;;;;;;;6.10;3.10;;;9.00;99.90;;;;;;5031249;28;20177;-81
2023/03/15 10:00:53;;;;;;;7.63;2.90;;;9.00;99.90;;;;;;5035066;28;20289;-83
2023/03/15 10:03:23;;;;;;;6.50;3.47;;;9.00;99.90;;;;;;5046083;28;20237;-83
2023/03/15 10:05:55;;;;;;;6.07;3.03;;;8.60;99.90;;;;;;5056380;28;20176;-83
2023/03/15 10:08:21;;;;;;;6.03;2.53;;;8.40;99.90;;;;;;5052177;28;20178;-84
2023/03/15 10:10:55;;;;;;;5.17;3.10;;;8.30;99.90;;;;;;5037021;28;20769;-90
2023/03/15 10:14:03;;;;;;;4.70;2.90;;;7.90;99.90;;;;;;5047557;28;20185;-87
2023/03/15 10:16:41;;;;;;;7.33;3.30;;;7.80;99.90;;;;;;5017170;28;20198;-92
2023/03/15 10:19:16;;;;;;;6.20;2.57;;;7.70;99.90;;;;;;5032627;28;20209;-91
2023/03/15 10:22:00;;;;;;;3.70;2.60;;;7.80;99.90;;;;;;5033860;28;20193;-89
2023/03/15 10:24:39;;;;;;;4.77;2.83;;;7.80;99.90;;;;;;5041755;28;20913;-91
2023/03/15 10:27:25;;;;;;;7.63;2.73;;;7.80;99.90;;;;;;5039179;28;20180;-88
2023/03/15 10:29:54;;;;;;;4.87;2.70;;;7.70;99.90;;;;;;5039993;28;20622;-91
2023/03/15 10:32:27;;;;;;;4.40;2.80;;;7.90;99.90;;;;;;5044854;28;20197;-91
2023/03/15 10:34:55;;;;;;;4.73;2.90;;;8.00;99.90;;;;;;5037788;28;20212;-93
2023/03/15 10:37:23;;;;;;;5.20;2.40;;;8.20;99.90;;;;;;5040347;28;20174;-90
2023/03/15 10:39:57;;;;;;;3.50;2.30;;;8.50;99.90;;;;;;5035204;28;20213;-91
2023/03/15 10:42:31;;;;;;;5.27;2.30;;;8.40;99.90;;;;;;5034540;28;20645;-88
2023/03/15 10:45:10;;;;;;;11.20;6.63;;;8.60;99.90;;;;;;5051704;28;20182;-91
2023/03/15 10:47:41;;;;;;;10.63;5.53;;;8.80;99.90;;;;;;5037044;28;20226;-89
2023/03/15 10:50:09;;;;;;;5.20;3.07;;;8.90;99.90;;;;;;5035931;28;20201;-90
2023/03/15 10:52:39;;;;;;;5.53;2.20;;;9.10;99.90;;;;;;5034260;28;20235;-91
2023/03/15 10:55:27;;;;;;;4.23;2.47;;;9.30;99.90;;;;;;5039113;28;20223;-86
2023/03/15 10:57:56;;;;;;;9.87;2.87;;;9.40;99.90;;;;;;5027316;28;20268;-91
2023/03/15 11:00:35;;;;;;;5.67;2.00;;;9.40;99.90;;;;;;5053207;28;20224;-89
2023/03/15 11:03:14;;;;;;;6.30;2.30;;;9.70;99.90;;;;;;5050769;28;20177;-90
2023/03/15 11:05:44;;;;;;;4.67;2.57;;;9.90;99.90;;;;;;5040748;28;20173;-92
2023/03/15 11:08:13;;;;;;;4.10;2.80;;;10.00;99.90;;;;;;5040770;28;20231;-91
2023/03/15 11:10:39;;;;;;;6.57;2.73;;;9.90;99.90;;;;;;5041699;28;20178;-93
2023/03/15 11:13:21;;;;;;;4.80;1.50;;;10.00;99.90;;;;;;5039151;28;20496;-92
2023/03/15 11:15:54;;;;;;;4.50;1.70;;;9.90;99.90;;;;;;5023771;28;20192;-90
2023/03/15 11:18:35;;;;;;;5.47;2.03;;;9.80;99.90;;;;;;5039473;28;20174;-87
2023/03/15 11:21:07;;;;;;;4.33;1.77;;;9.90;99.90;;;;;;5041712;28;20296;-92
2023/03/15 11:23:38;;;;;;;6.53;2.10;;;9.70;99.90;;;;;;5039769;28;20174;-92
2023/03/15 11:26:05;;;;;;;3.63;1.90;;;9.80;99.90;;;;;;5040279;28;20184;-90
2023/03/15 11:28:34;;;;;;;5.13;2.40;;;9.50;99.90;;;;;;5040586;28;20174;-91
2023/03/15 11:31:03;;;;;;;6.20;2.30;;;9.90;99.90;;;;;;5042827;28;20684;-87
2023/03/15 11:33:53;;;;;;;4.03;2.30;;;9.80;99.90;;;;;;5024728;28;20540;-89
2023/03/15 11:36:26;;;;;;;5.77;2.50;;;9.80;99.90;;;;;;5045983;28;20193;-90
2023/03/15 11:38:52;;;;;;;4.97;2.27;;;9.90;99.90;;;;;;5040699;28;20188;-86
2023/03/15 11:41:51;;;;;;;4.93;2.10;;;10.10;99.90;;;;;;5039442;28;20177;-91
2023/03/15 11:44:40;;;;;;;3.63;2.20;;;10.40;99.90;;;;;;5041142;28;20173;-89
2023/03/15 11:47:29;;;;;;;4.90;2.20;;;10.40;99.90;;;;;;5025849;28;20178;-92
2023/03/15 11:49:56;;;;;;;3.60;2.00;;;10.40;99.90;;;;;;5052987;28;20222;-84
2023/03/15 11:52:27;;;;;;;3.37;1.90;;;10.50;99.90;;;;;;5052331;28;20212;-82
2023/03/15 11:55:02;;;;;;;4.47;1.93;;;10.30;99.90;;;;;;5057091;28;20192;-83
2023/03/15 11:57:40;;;;;;;3.20;1.50;;;10.40;99.90;;;;;;5053236;28;20176;-85
2023/03/15 12:00:27;;;;;;;3.40;1.50;;;10.50;99.90;;;;;;5040405;28;20291;-90
2023/03/15 12:02:56;;;;;;;3.33;1.47;;;10.70;99.90;;;;;;5049743;28;20177;-90
2023/03/15 12:05:41;;;;;;;2.57;1.37;;;10.70;99.90;;;;;;5046436;28;20174;-93
2023/03/15 12:08:19;;;;;;;3.60;1.20;;;11.10;99.90;;;;;;5039813;28;20661;-89
2023/03/15 12:10:46;;;;;;;4.00;1.40;;;11.10;99.90;;;;;;5055487;28;20193;-83
2023/03/15 12:13:29;;;;;;;3.37;1.30;;;10.80;99.90;;;;;;5054328;28;20173;-83
2023/03/15 12:15:56;;;;;;;3.30;2.30;;;10.70;99.90;;;;;;5052351;28;20243;-90
2023/03/15 12:18:45;;;;;;;2.50;1.87;;;10.80;99.90;;;;;;5045532;28;20181;-91
2023/03/15 12:21:20;;;;;;;2.30;1.40;;;10.80;99.90;;;;;;5030322;28;20288;-86
2023/03/15 12:23:57;;;;;;;3.23;1.33;;;10.90;99.90;;;;;;5053983;28;20173;-84
2023/03/15 12:26:44;;;;;;;3.80;1.57;;;11.10;99.90;;;;;;5055505;28;20194;-87
2023/03/15 12:29:24;;;;;;;2.33;1.07;;;11.40;99.90;;;;;;5041157;28;20181;-92
2023/03/15 12:31:51;;;;;;;3.60;1.13;;;11.70;99.90;;;;;;5043354;28;20191;-90
2023/03/15 12:34:41;;;;;;;4.67;1.50;;;11.80;99.90;;;;;;5040092;28;20301;-88
2023/03/15 12:37:15;;;;;;;4.40;1.77;;;11.80;99.90;;;;;;5034133;28;20240;-90
2023/03/15 12:40:22;;;;;;;2.67;1.43;;;11.50;99.90;;;;;;5044029;28;20196;-88
2023/03/15 12:42:48;;;;;;;2.60;1.10;;;11.30;99.90;;;;;;5050912;28;20245;-82
2023/03/15 12:45:16;;;;;;;2.90;1.20;;;11.40;99.90;;;;;;5051710;28;20181;-90
2023/03/15 12:47:48;;;;;;;3.43;1.40;;;11.40;99.90;;;;;;5037725;28;20178;-93
2023/03/15 12:50:44;;;;;;;3.00;1.20;;;11.50;99.90;;;;;;5039574;28;20189;-94
2023/03/15 12:53:22;;;;;;;3.07;1.30;;;11.50;99.90;;;;;;5035440;28;20173;-88
2023/03/15 12:55:50;;;;;;;4.90;1.07;;;11.40;99.90;;;;;;5020206;28;20540;-92
2023/03/15 12:58:19;;;;;;;1.20;0.90;;;11.60;99.90;;;;;;5023230;28;20194;-91
2023/03/15 13:00:45;;;;;;;1.43;1.13;;;11.40;99.90;;;;;;5038068;28;20210;-93
2023/03/15 13:03:18;;;;;;;1.87;1.23;;;11.10;99.90;;;;;;5047451;28;20614;-92
2023/03/15 13:06:12;;;;;;;1.87;1.03;;;10.80;99.90;;;;;;5041154;28;20272;-90
2023/03/15 13:09:01;;;;;;;3.07;1.83;;;10.70;99.90;;;;;;5048399;28;20177;-94